Quadra Queen II — VGTT — position and weather

sailwx.info

Track history (hours):
 
Tides and Currents Weather Stations Pressure Air Temp Water Temp Dewpoint Dewpoint Depression Visibility Wind Speed Wind Dir Waves Ship Positions

Quadra Queen II

Last reported at 2017-Oct-16 22:24 UTC. Time now 2017-Oct-16 22:41 UTC.
Position N 50°35' W 126°58'.

Length 55 m; draft 3 m.

Type: Ship. MMSI: 316001244.

Date/timePositionNaut miles runAvg speedWind from/ knotsBaromVisibWave heightAir tempDewpointWater temp
2017-Oct-16 22:24N 50°35' W 126°58'1 1.9
2017-Oct-16 21:49N 50°35' W 126°56'411.3
2017-Oct-16 21:29N 50°36' W 127°02'1 3.1
2017-Oct-16 21:00N 50°36' W 127°04'3 5.2
2017-Oct-16 20:29N 50°38' W 127°01'3 3.8
2017-Oct-16 19:49N 50°36' W 127°04'411.3
2017-Oct-16 19:30N 50°35' W 126°58'1 2.1
2017-Oct-16 19:00N 50°35' W 126°57'5 7.6
2017-Oct-16 18:17N 50°36' W 127°05'310.4
2017-Oct-16 18:00N 50°38' W 127°01'3 3.1
2017-Oct-16 17:05N 50°36' W 127°05'112.0
2017-Oct-16 16:59N 50°36' W 127°03'5 8.8
2017-Oct-16 16:29N 50°35' W 126°56'2 5.3
2017-Oct-16 16:00N 50°36' W 126°60'2 3.0
2017-Oct-16 15:11N 50°36' W 127°04'211.5
2017-Oct-16 15:00N 50°37' W 127°01'2 4.2
2017-Oct-16 14:29N 50°36' W 127°04'5 4.8
2017-Oct-16 13:27N 50°35' W 126°56'0 0.0
2017-Oct-16 10:12N 50°35' W 126°56'0 0.0
2017-Oct-16 10:00N 50°35' W 126°56'0 0.0
2017-Oct-16 09:18N 50°35' W 126°56'0 0.0
2017-Oct-16 09:00N 50°35' W 126°56'0 0.0
2017-Oct-16 05:30N 50°35' W 126°56'4 7.6
2017-Oct-16 04:58N 50°38' W 127°01'3 5.4
2017-Oct-16 04:23N 50°36' W 127°05'3 7.4
2017-Oct-16 03:57N 50°38' W 127°01'4 8.7
2017-Oct-16 03:30N 50°35' W 126°56'4 6.5
2017-Oct-16 02:55N 50°36' W 127°02'2 4.4
2017-Oct-16 02:29N 50°36' W 127°05'2 4.6
2017-Oct-16 01:57N 50°37' W 127°02'2 5.5
2017-Oct-16 01:30N 50°36' W 127°05'611.7
2017-Oct-16 01:00N 50°35' W 126°56'3 5.2
2017-Oct-16 00:29N 50°35' W 127°00'3 5.4
2017-Oct-15 23:55N 50°36' W 127°05'3 6.0
2017-Oct-15 23:23N 50°38' W 127°01'3 4.9
2017-Oct-15 22:46N 50°36' W 127°05'312.3
2017-Oct-15 22:29N 50°35' W 126°59'2 3.8
2017-Oct-15 21:53N 50°35' W 126°56'510.5
2017-Oct-15 21:26N 50°36' W 127°04'1 1.1
2017-Oct-15 20:56N 50°36' W 127°03'2 4.4
2017-Oct-15 20:29N 50°38' W 127°01'3 3.7
2017-Oct-15 19:47N 50°36' W 127°04'411.6
2017-Oct-15 19:28N 50°35' W 126°58'1 1.9
2017-Oct-15 19:01N 50°35' W 126°57'5 6.2
2017-Oct-15 18:15N 50°36' W 127°04'2 9.8
2017-Oct-15 18:00N 50°38' W 127°01'2 4.6
2017-Oct-15 17:30N 50°36' W 127°04'1 1.3
2017-Oct-15 16:59N 50°36' W 127°03'4 5.6
2017-Oct-15 16:13N 50°35' W 126°56'2 8.9
2017-Oct-15 15:56N 50°35' W 126°60'3 2.5
2017-Oct-15 14:38N 50°36' W 127°05'3 4.1
2017-Oct-15 14:00N 50°36' W 127°01'3 0.4
2017-Oct-15 05:39N 50°35' W 126°56'210.5
2017-Oct-15 05:28N 50°36' W 126°59'2 5.2
2017-Oct-15 04:59N 50°37' W 127°02'2 4.2
2017-Oct-15 04:27N 50°36' W 127°04'2 5.2
2017-Oct-15 04:00N 50°37' W 127°02'4 7.4
2017-Oct-15 03:27N 50°35' W 126°56'4 8.9
2017-Oct-15 02:59N 50°36' W 127°02'1 0.9
2017-Oct-15 02:24N 50°36' W 127°03'2 4.6
2017-Oct-15 02:00N 50°38' W 127°01'3 5.6
2017-Oct-15 01:28N 50°36' W 127°05'612.7
2017-Oct-15 01:00N 50°35' W 126°56'2 4.4
2017-Oct-15 00:30N 50°35' W 126°60'4 5.9
2017-Oct-14 23:54N 50°36' W 127°05'3 6.5
2017-Oct-14 23:26N 50°38' W 127°01'3 4.8
2017-Oct-14 22:46N 50°36' W 127°05'512.9
2017-Oct-14 22:25N 50°35' W 126°58'1 2.4
2017-Oct-14 21:54N 50°35' W 126°56'4 9.6
2017-Oct-14 21:29N 50°36' W 127°02'1 1.1
2017-Oct-14 20:57N 50°36' W 127°03'2 4.4
2017-Oct-14 20:28N 50°38' W 127°01'2 2.6
2017-Oct-14 19:42N 50°36' W 127°02'311.6
2017-Oct-14 19:25N 50°35' W 126°57'1 1.4
2017-Oct-14 18:58N 50°35' W 126°58'4 5.0
2017-Oct-14 18:13N 50°36' W 127°04'210.7
2017-Oct-14 18:00N 50°38' W 127°01'2 1.9
2017-Oct-14 16:51N 50°36' W 127°00'3 4.1
2017-Oct-14 16:13N 50°35' W 126°56'2 7.4
2017-Oct-14 16:00N 50°35' W 126°58'3 3.5
2017-Oct-14 15:07N 50°36' W 127°03'211.8
2017-Oct-14 14:59N 50°37' W 127°02'2 1.9
2017-Oct-14 13:55N 50°35' W 126°60'2 0.3
2017-Oct-14 05:35N 50°35' W 126°56'1 8.7
2017-Oct-14 05:30N 50°35' W 126°57'4 6.7
2017-Oct-14 04:56N 50°38' W 127°01'2 0.3
2017-Oct-13 23:16N 50°36' W 127°03'0 0.8
2017-Oct-13 22:41N 50°36' W 127°03'312.7
2017-Oct-13 22:29N 50°35' W 126°59'2 3.0
2017-Oct-13 21:52N 50°35' W 126°56'4 4.3
2017-Oct-13 20:53N 50°36' W 127°02'1 3.3
2017-Oct-13 20:27N 50°38' W 127°01'2 3.1
2017-Oct-13 19:44N 50°36' W 127°03'412.0
2017-Oct-13 19:24N 50°35' W 126°57'0 0.5
2017-Oct-13 19:00N 50°35' W 126°57'4 4.4
2017-Oct-13 18:10N 50°36' W 127°02'1 3.9
2017-Oct-13 17:48N 50°38' W 127°01'2 3.4
2017-Oct-13 17:08N 50°36' W 127°03'211.1
2017-Oct-13 16:56N 50°35' W 126°59'2 3.1
2017-Oct-13 16:15N 50°35' W 126°56'5 4.8
2017-Oct-13 15:12N 50°36' W 127°04'210.9
2017-Oct-13 15:00N 50°37' W 127°01'3 5.0
2017-Oct-13 14:29N 50°36' W 127°05'3 5.5
2017-Oct-13 13:55N 50°36' W 126°60'2 0.3
2017-Oct-13 05:36N 50°35' W 126°56'2 9.5
2017-Oct-13 05:26N 50°35' W 126°58'3 5.8
2017-Oct-13 04:56N 50°37' W 127°02'3 5.7
2017-Oct-13 04:25N 50°36' W 127°05'3 6.5
2017-Oct-13 03:57N 50°38' W 127°01'4 8.5
2017-Oct-13 03:28N 50°35' W 126°56'6 6.2
2017-Oct-13 02:32N 50°36' W 127°05'111.9
2017-Oct-13 02:25N 50°36' W 127°03'2 4.2
2017-Oct-13 02:00N 50°37' W 127°02'3 4.9
2017-Oct-13 01:28N 50°36' W 127°05'511.9
2017-Oct-13 01:01N 50°35' W 126°56'2 4.0
2017-Oct-13 00:30N 50°35' W 126°60'2 3.2
2017-Oct-12 23:50N 50°36' W 127°03'2 4.7
2017-Oct-12 23:25N 50°38' W 127°01'3 4.7
2017-Oct-12 22:46N 50°36' W 127°05'412.3
2017-Oct-12 22:28N 50°35' W 126°59'2 3.4
2017-Oct-12 21:53N 50°35' W 126°56'6 7.5
2017-Oct-12 21:07N 50°36' W 127°05'1 8.5
2017-Oct-12 21:00N 50°36' W 127°04'2 4.5
2017-Oct-12 20:29N 50°38' W 127°01'3 1.1
2017-Oct-12 17:26N 50°36' W 127°05'3 5.6
2017-Oct-12 16:59N 50°36' W 127°01'3 4.2
2017-Oct-12 16:11N 50°35' W 126°56'2 9.1
2017-Oct-12 16:00N 50°35' W 126°59'4 7.2
2017-Oct-12 15:25N 50°36' W 127°05'3 7.6
2017-Oct-12 15:00N 50°38' W 127°01'2 2.4
2017-Oct-12 14:06N 50°36' W 127°03'211.2
2017-Oct-12 13:58N 50°36' W 127°00'3 0.3
2017-Oct-12 05:32N 50°35' W 126°56'0 8.1
2017-Oct-12 05:29N 50°35' W 126°57'4 6.7
2017-Oct-12 04:55N 50°38' W 127°01'3 5.1
2017-Oct-12 04:21N 50°36' W 127°05'3 7.0
2017-Oct-12 03:56N 50°38' W 127°01'4 9.0
2017-Oct-12 03:30N 50°35' W 126°56'5 4.4
2017-Oct-12 02:27N 50°36' W 127°03'1 2.7
2017-Oct-12 02:00N 50°37' W 127°02'4 4.5
2017-Oct-12 01:04N 50°35' W 126°56'0 0.2
2017-Oct-12 00:48N 50°35' W 126°56'5 5.3
2017-Oct-11 23:54N 50°36' W 127°03'2 4.8
2017-Oct-11 23:26N 50°38' W 127°01'3 6.0
2017-Oct-11 22:55N 50°36' W 127°05'4 9.0
2017-Oct-11 22:29N 50°35' W 126°59'2 2.7
2017-Oct-11 21:50N 50°35' W 126°56'4 5.2
2017-Oct-11 20:58N 50°36' W 127°03'2 4.5
2017-Oct-11 20:30N 50°38' W 127°01'2 3.5
2017-Oct-11 19:51N 50°36' W 127°03'0 0.1
2017-Oct-11 17:06N 50°36' W 127°04'112.1
2017-Oct-11 17:00N 50°36' W 127°02'1 0.1
2017-Oct-10 23:49N 50°36' W 127°03'2 5.4
2017-Oct-10 23:25N 50°38' W 127°01'3 5.0
2017-Oct-10 22:50N 50°36' W 127°05'511.5
2017-Oct-10 22:24N 50°35' W 126°57'1 1.8
2017-Oct-10 21:57N 50°35' W 126°56'4 3.7
2017-Oct-10 20:51N 50°38' W 127°01'0 0.1
2017-Oct-10 20:27N 50°38' W 127°01'2 4.2
2017-Oct-10 19:52N 50°36' W 127°04'511.6
2017-Oct-10 19:25N 50°35' W 126°56'2 3.9
2017-Oct-10 19:00N 50°35' W 126°59'3 5.1
2017-Oct-10 18:19N 50°36' W 127°04'2 4.3
2017-Oct-10 17:45N 50°38' W 127°01'3 4.0
2017-Oct-10 17:06N 50°36' W 127°04'112.0
2017-Oct-10 17:00N 50°36' W 127°02'4 5.4
2017-Oct-10 16:14N 50°35' W 126°56'2 7.6
2017-Oct-10 15:59N 50°35' W 126°59'4 6.4
2017-Oct-10 15:21N 50°36' W 127°05'3 8.9
2017-Oct-10 15:00N 50°38' W 127°01'2 2.1
2017-Oct-10 14:00N 50°36' W 127°01'3 0.4
2017-Oct-10 05:36N 50°35' W 126°56'1 7.8
2017-Oct-10 05:30N 50°35' W 126°57'4 5.9
2017-Oct-10 04:53N 50°38' W 127°01'4 2.4
2017-Oct-10 03:13N 50°35' W 126°56'310.1
2017-Oct-10 02:54N 50°35' W 127°01'2 3.7
2017-Oct-10 02:24N 50°36' W 127°04'2 6.2
2017-Oct-10 02:00N 50°38' W 127°01'3 6.1
2017-Oct-10 01:28N 50°36' W 127°05'511.0
2017-Oct-10 01:00N 50°35' W 126°57'2 2.9
2017-Oct-10 00:28N 50°35' W 126°59'4 6.6
2017-Oct-09 23:56N 50°36' W 127°05'3 6.0
2017-Oct-09 23:24N 50°38' W 127°01'2 3.4
2017-Oct-09 22:43N 50°36' W 127°03'211.6
2017-Oct-09 22:30N 50°36' W 126°60'2 3.9
2017-Oct-09 21:53N 50°35' W 126°56'411.1
2017-Oct-09 21:30N 50°36' W 127°03'0 0.7
2017-Oct-09 21:00N 50°36' W 127°03'2 3.4
2017-Oct-09 20:30N 50°38' W 127°02'3 5.6
2017-Oct-09 19:59N 50°36' W 127°05'611.9
2017-Oct-09 19:30N 50°35' W 126°56'2 3.3
2017-Oct-09 19:00N 50°35' W 126°59'4 5.5
2017-Oct-09 18:19N 50°36' W 127°05'3 6.5
2017-Oct-09 17:52N 50°38' W 127°01'3 7.0
2017-Oct-09 17:26N 50°36' W 127°05'1 3.3
2017-Oct-09 16:59N 50°36' W 127°03'4 5.6
2017-Oct-09 16:13N 50°35' W 126°56'3 9.3
2017-Oct-09 15:57N 50°36' W 126°60'3 4.9
2017-Oct-09 15:17N 50°36' W 127°05'310.1
2017-Oct-09 14:59N 50°38' W 127°01'3 5.8
2017-Oct-09 14:30N 50°36' W 127°05'3 5.3
2017-Oct-09 14:00N 50°36' W 127°00'3 0.3
2017-Oct-09 05:54N 50°35' W 126°56'4 9.4
2017-Oct-09 05:30N 50°37' W 127°02'2 1.9
2017-Oct-09 04:38N 50°36' W 127°04'111.1
2017-Oct-09 04:30N 50°37' W 127°02'2 4.7
2017-Oct-09 04:00N 50°36' W 126°59'1 1.2
2017-Oct-09 03:29N 50°35' W 126°58'4 4.8
2017-Oct-09 02:34N 50°36' W 127°05'2 7.0
2017-Oct-09 02:19N 50°36' W 127°02'2 3.8
2017-Oct-09 01:55N 50°38' W 127°01'3 5.2
2017-Oct-09 01:24N 50°36' W 127°04'512.0
2017-Oct-09 01:01N 50°35' W 126°57'4 3.1
2017-Oct-08 23:49N 50°36' W 127°03'2 5.4
2017-Oct-08 23:26N 50°38' W 127°01'3 4.3
2017-Oct-08 22:46N 50°36' W 127°05'311.5
2017-Oct-08 22:30N 50°35' W 126°60'2 3.5
2017-Oct-08 21:49N 50°35' W 126°56'612.0
2017-Oct-08 21:20N 50°36' W 127°05'1 2.7
2017-Oct-08 20:59N 50°36' W 127°04'2 4.4
2017-Oct-08 20:28N 50°38' W 127°01'3 5.0
2017-Oct-08 19:54N 50°36' W 127°05'512.4
2017-Oct-08 19:30N 50°35' W 126°57'2 3.5
2017-Oct-08 18:56N 50°35' W 127°00'3 5.8
2017-Oct-08 18:24N 50°36' W 127°05'3 5.5
2017-Oct-08 17:51N 50°38' W 127°01'2 2.8
2017-Oct-08 17:10N 50°36' W 127°02'313.8
2017-Oct-08 16:56N 50°35' W 126°57'1 1.9
2017-Oct-08 16:29N 50°35' W 126°56'2 4.2
2017-Oct-08 16:00N 50°35' W 126°59'4 2.9
2017-Oct-08 14:42N 50°36' W 127°05'210.5
2017-Oct-08 14:30N 50°37' W 127°02'1 2.4
2017-Oct-08 13:59N 50°36' W 127°00'3 0.4
2017-Oct-08 05:38N 50°35' W 126°56'1 7.6
2017-Oct-08 05:28N 50°35' W 126°58'3 5.1
2017-Oct-08 04:52N 50°38' W 127°01'2 3.2
2017-Oct-08 04:13N 50°36' W 127°03'2 9.3
2017-Oct-08 04:00N 50°38' W 127°01'4 7.8
2017-Oct-08 03:29N 50°35' W 126°56'3 5.1
2017-Oct-08 02:59N 50°35' W 126°60'3 6.7
2017-Oct-08 02:30N 50°36' W 127°05'3 5.6
2017-Oct-08 01:57N 50°38' W 127°01'2 4.3
2017-Oct-08 01:22N 50°36' W 127°04'512.2
2017-Oct-08 00:59N 50°35' W 126°57'1 2.4
2017-Oct-08 00:30N 50°35' W 126°59'4 7.3
2017-Oct-07 23:56N 50°36' W 127°05'3 5.9
2017-Oct-07 23:24N 50°38' W 127°01'3 4.6
2017-Oct-07 22:47N 50°36' W 127°05'411.4
2017-Oct-07 22:26N 50°35' W 126°58'2 2.7
2017-Oct-07 21:51N 50°35' W 126°56'610.6
2017-Oct-07 21:18N 50°36' W 127°05'2 4.5
2017-Oct-07 20:57N 50°36' W 127°03'2 4.0
2017-Oct-07 20:30N 50°38' W 127°01'3 5.7
2017-Oct-07 19:57N 50°36' W 127°05'511.6
2017-Oct-07 19:29N 50°35' W 126°57'1 2.6
2017-Oct-07 18:58N 50°35' W 126°59'3 3.1
2017-Oct-07 18:08N 50°37' W 127°02'1 2.7
2017-Oct-07 17:44N 50°38' W 127°01'3 4.3
2017-Oct-07 17:05N 50°36' W 127°05'111.8
2017-Oct-07 16:59N 50°36' W 127°03'4 6.4
2017-Oct-07 16:19N 50°35' W 126°56'3 8.4
2017-Oct-07 16:00N 50°36' W 127°00'2 1.9
2017-Oct-07 15:07N 50°36' W 127°03'111.1
2017-Oct-07 14:59N 50°37' W 127°02'3 4.8
2017-Oct-07 14:27N 50°36' W 127°05'2 4.7
2017-Oct-07 13:59N 50°36' W 127°01'3 0.4
2017-Oct-07 05:55N 50°35' W 126°56'4 9.3
2017-Oct-07 05:30N 50°37' W 127°01'3 3.6
2017-Oct-07 04:41N 50°36' W 127°05'311.1
2017-Oct-07 04:27N 50°37' W 127°02'2 5.1
2017-Oct-07 04:00N 50°36' W 126°59'1 2.9
2017-Oct-07 03:30N 50°35' W 126°57'4 5.3
2017-Oct-07 02:40N 50°36' W 127°04'211.3
2017-Oct-07 02:30N 50°37' W 127°01'3 4.7
2017-Oct-07 01:53N 50°36' W 127°05'5 8.4
2017-Oct-07 01:17N 50°35' W 126°57'1 2.0
2017-Oct-07 00:56N 50°35' W 126°56'610.5
2017-Oct-07 00:23N 50°36' W 127°05'2 4.4
2017-Oct-07 00:00N 50°36' W 127°03'0 0.1
2017-Oct-06 23:29N 50°36' W 127°03'1 2.3
2017-Oct-06 23:00N 50°36' W 127°04'  
Track history (hours):
 
Tides and Currents Weather Stations Pressure Air Temp Water Temp Dewpoint Dewpoint Depression Visibility Wind Speed Wind Dir Waves Ship Positions

Quadra Queen II

Last reported at 2017-Oct-16 22:24 UTC. Time now 2017-Oct-16 22:41 UTC.
Position N 50°35' W 126°58'.

Length 55 m; draft 3 m.

Type: Ship. MMSI: 316001244.

Date/timePositionNaut miles runAvg speedWind from/ knotsBaromVisibWave heightAir tempDewpointWater temp
2017-Oct-16 22:24N 50°35' W 126°58'1 1.9
2017-Oct-16 21:49N 50°35' W 126°56'411.3
2017-Oct-16 21:29N 50°36' W 127°02'1 3.1
2017-Oct-16 21:00N 50°36' W 127°04'3 5.2
2017-Oct-16 20:29N 50°38' W 127°01'3 3.8
2017-Oct-16 19:49N 50°36' W 127°04'411.3
2017-Oct-16 19:30N 50°35' W 126°58'1 2.1
2017-Oct-16 19:00N 50°35' W 126°57'5 7.6
2017-Oct-16 18:17N 50°36' W 127°05'310.4
2017-Oct-16 18:00N 50°38' W 127°01'3 3.1
2017-Oct-16 17:05N 50°36' W 127°05'112.0
2017-Oct-16 16:59N 50°36' W 127°03'5 8.8
2017-Oct-16 16:29N 50°35' W 126°56'2 5.3
2017-Oct-16 16:00N 50°36' W 126°60'2 3.0
2017-Oct-16 15:11N 50°36' W 127°04'211.5
2017-Oct-16 15:00N 50°37' W 127°01'2 4.2
2017-Oct-16 14:29N 50°36' W 127°04'5 4.8
2017-Oct-16 13:27N 50°35' W 126°56'0 0.0
2017-Oct-16 10:12N 50°35' W 126°56'0 0.0
2017-Oct-16 10:00N 50°35' W 126°56'0 0.0
2017-Oct-16 09:18N 50°35' W 126°56'0 0.0
2017-Oct-16 09:00N 50°35' W 126°56'0 0.0
2017-Oct-16 05:30N 50°35' W 126°56'4 7.6
2017-Oct-16 04:58N 50°38' W 127°01'3 5.4
2017-Oct-16 04:23N 50°36' W 127°05'3 7.4
2017-Oct-16 03:57N 50°38' W 127°01'4 8.7
2017-Oct-16 03:30N 50°35' W 126°56'4 6.5
2017-Oct-16 02:55N 50°36' W 127°02'2 4.4
2017-Oct-16 02:29N 50°36' W 127°05'2 4.6
2017-Oct-16 01:57N 50°37' W 127°02'2 5.5
2017-Oct-16 01:30N 50°36' W 127°05'611.7
2017-Oct-16 01:00N 50°35' W 126°56'3 5.2
2017-Oct-16 00:29N 50°35' W 127°00'3 5.4
2017-Oct-15 23:55N 50°36' W 127°05'3 6.0
2017-Oct-15 23:23N 50°38' W 127°01'3 4.9
2017-Oct-15 22:46N 50°36' W 127°05'312.3
2017-Oct-15 22:29N 50°35' W 126°59'2 3.8
2017-Oct-15 21:53N 50°35' W 126°56'510.5
2017-Oct-15 21:26N 50°36' W 127°04'1 1.1
2017-Oct-15 20:56N 50°36' W 127°03'2 4.4
2017-Oct-15 20:29N 50°38' W 127°01'3 3.7
2017-Oct-15 19:47N 50°36' W 127°04'411.6
2017-Oct-15 19:28N 50°35' W 126°58'1 1.9
2017-Oct-15 19:01N 50°35' W 126°57'5 6.2
2017-Oct-15 18:15N 50°36' W 127°04'2 9.8
2017-Oct-15 18:00N 50°38' W 127°01'2 4.6
2017-Oct-15 17:30N 50°36' W 127°04'1 1.3
2017-Oct-15 16:59N 50°36' W 127°03'4 5.6
2017-Oct-15 16:13N 50°35' W 126°56'2 8.9
2017-Oct-15 15:56N 50°35' W 126°60'3 2.5
2017-Oct-15 14:38N 50°36' W 127°05'3 4.1
2017-Oct-15 14:00N 50°36' W 127°01'3 0.4
2017-Oct-15 05:39N 50°35' W 126°56'210.5
2017-Oct-15 05:28N 50°36' W 126°59'2 5.2
2017-Oct-15 04:59N 50°37' W 127°02'2 4.2
2017-Oct-15 04:27N 50°36' W 127°04'2 5.2
2017-Oct-15 04:00N 50°37' W 127°02'4 7.4
2017-Oct-15 03:27N 50°35' W 126°56'4 8.9
2017-Oct-15 02:59N 50°36' W 127°02'1 0.9
2017-Oct-15 02:24N 50°36' W 127°03'2 4.6
2017-Oct-15 02:00N 50°38' W 127°01'3 5.6
2017-Oct-15 01:28N 50°36' W 127°05'612.7
2017-Oct-15 01:00N 50°35' W 126°56'2 4.4
2017-Oct-15 00:30N 50°35' W 126°60'4 5.9
2017-Oct-14 23:54N 50°36' W 127°05'3 6.5
2017-Oct-14 23:26N 50°38' W 127°01'3 4.8
2017-Oct-14 22:46N 50°36' W 127°05'512.9
2017-Oct-14 22:25N 50°35' W 126°58'1 2.4
2017-Oct-14 21:54N 50°35' W 126°56'4 9.6
2017-Oct-14 21:29N 50°36' W 127°02'1 1.1
2017-Oct-14 20:57N 50°36' W 127°03'2 4.4
2017-Oct-14 20:28N 50°38' W 127°01'2 2.6
2017-Oct-14 19:42N 50°36' W 127°02'311.6
2017-Oct-14 19:25N 50°35' W 126°57'1 1.4
2017-Oct-14 18:58N 50°35' W 126°58'4 5.0
2017-Oct-14 18:13N 50°36' W 127°04'210.7
2017-Oct-14 18:00N 50°38' W 127°01'2 1.9
2017-Oct-14 16:51N 50°36' W 127°00'3 4.1
2017-Oct-14 16:13N 50°35' W 126°56'2 7.4
2017-Oct-14 16:00N 50°35' W 126°58'3 3.5
2017-Oct-14 15:07N 50°36' W 127°03'211.8
2017-Oct-14 14:59N 50°37' W 127°02'2 1.9
2017-Oct-14 13:55N 50°35' W 126°60'2 0.3
2017-Oct-14 05:35N 50°35' W 126°56'1 8.7
2017-Oct-14 05:30N 50°35' W 126°57'4 6.7
2017-Oct-14 04:56N 50°38' W 127°01'2 0.3
2017-Oct-13 23:16N 50°36' W 127°03'0 0.8
2017-Oct-13 22:41N 50°36' W 127°03'312.7
2017-Oct-13 22:29N 50°35' W 126°59'2 3.0
2017-Oct-13 21:52N 50°35' W 126°56'4 4.3
2017-Oct-13 20:53N 50°36' W 127°02'1 3.3
2017-Oct-13 20:27N 50°38' W 127°01'2 3.1
2017-Oct-13 19:44N 50°36' W 127°03'412.0
2017-Oct-13 19:24N 50°35' W 126°57'0 0.5
2017-Oct-13 19:00N 50°35' W 126°57'4 4.4
2017-Oct-13 18:10N 50°36' W 127°02'1 3.9
2017-Oct-13 17:48N 50°38' W 127°01'2 3.4
2017-Oct-13 17:08N 50°36' W 127°03'211.1
2017-Oct-13 16:56N 50°35' W 126°59'2 3.1
2017-Oct-13 16:15N 50°35' W 126°56'5 4.8
2017-Oct-13 15:12N 50°36' W 127°04'210.9
2017-Oct-13 15:00N 50°37' W 127°01'3 5.0
2017-Oct-13 14:29N 50°36' W 127°05'3 5.5
2017-Oct-13 13:55N 50°36' W 126°60'2 0.3
2017-Oct-13 05:36N 50°35' W 126°56'2 9.5
2017-Oct-13 05:26N 50°35' W 126°58'3 5.8
2017-Oct-13 04:56N 50°37' W 127°02'3 5.7
2017-Oct-13 04:25N 50°36' W 127°05'3 6.5
2017-Oct-13 03:57N 50°38' W 127°01'4 8.5
2017-Oct-13 03:28N 50°35' W 126°56'6 6.2
2017-Oct-13 02:32N 50°36' W 127°05'111.9
2017-Oct-13 02:25N 50°36' W 127°03'2 4.2
2017-Oct-13 02:00N 50°37' W 127°02'3 4.9
2017-Oct-13 01:28N 50°36' W 127°05'511.9
2017-Oct-13 01:01N 50°35' W 126°56'2 4.0
2017-Oct-13 00:30N 50°35' W 126°60'2 3.2
2017-Oct-12 23:50N 50°36' W 127°03'2 4.7
2017-Oct-12 23:25N 50°38' W 127°01'3 4.7
2017-Oct-12 22:46N 50°36' W 127°05'412.3
2017-Oct-12 22:28N 50°35' W 126°59'2 3.4
2017-Oct-12 21:53N 50°35' W 126°56'6 7.5
2017-Oct-12 21:07N 50°36' W 127°05'1 8.5
2017-Oct-12 21:00N 50°36' W 127°04'2 4.5
2017-Oct-12 20:29N 50°38' W 127°01'3 1.1
2017-Oct-12 17:26N 50°36' W 127°05'3 5.6
2017-Oct-12 16:59N 50°36' W 127°01'3 4.2
2017-Oct-12 16:11N 50°35' W 126°56'2 9.1
2017-Oct-12 16:00N 50°35' W 126°59'4 7.2
2017-Oct-12 15:25N 50°36' W 127°05'3 7.6
2017-Oct-12 15:00N 50°38' W 127°01'2 2.4
2017-Oct-12 14:06N 50°36' W 127°03'211.2
2017-Oct-12 13:58N 50°36' W 127°00'3 0.3
2017-Oct-12 05:32N 50°35' W 126°56'0 8.1
2017-Oct-12 05:29N 50°35' W 126°57'4 6.7
2017-Oct-12 04:55N 50°38' W 127°01'3 5.1
2017-Oct-12 04:21N 50°36' W 127°05'3 7.0
2017-Oct-12 03:56N 50°38' W 127°01'4 9.0
2017-Oct-12 03:30N 50°35' W 126°56'5 4.4
2017-Oct-12 02:27N 50°36' W 127°03'1 2.7
2017-Oct-12 02:00N 50°37' W 127°02'4 4.5
2017-Oct-12 01:04N 50°35' W 126°56'0 0.2
2017-Oct-12 00:48N 50°35' W 126°56'5 5.3
2017-Oct-11 23:54N 50°36' W 127°03'2 4.8
2017-Oct-11 23:26N 50°38' W 127°01'3 6.0
2017-Oct-11 22:55N 50°36' W 127°05'4 9.0
2017-Oct-11 22:29N 50°35' W 126°59'2 2.7
2017-Oct-11 21:50N 50°35' W 126°56'4 5.2
2017-Oct-11 20:58N 50°36' W 127°03'2 4.5
2017-Oct-11 20:30N 50°38' W 127°01'2 3.5
2017-Oct-11 19:51N 50°36' W 127°03'0 0.1
2017-Oct-11 17:06N 50°36' W 127°04'112.1
2017-Oct-11 17:00N 50°36' W 127°02'1 0.1
2017-Oct-10 23:49N 50°36' W 127°03'2 5.4
2017-Oct-10 23:25N 50°38' W 127°01'3 5.0
2017-Oct-10 22:50N 50°36' W 127°05'511.5
2017-Oct-10 22:24N 50°35' W 126°57'1 1.8
2017-Oct-10 21:57N 50°35' W 126°56'4 3.7
2017-Oct-10 20:51N 50°38' W 127°01'0 0.1
2017-Oct-10 20:27N 50°38' W 127°01'2 4.2
2017-Oct-10 19:52N 50°36' W 127°04'511.6
2017-Oct-10 19:25N 50°35' W 126°56'2 3.9
2017-Oct-10 19:00N 50°35' W 126°59'3 5.1
2017-Oct-10 18:19N 50°36' W 127°04'2 4.3
2017-Oct-10 17:45N 50°38' W 127°01'3 4.0
2017-Oct-10 17:06N 50°36' W 127°04'112.0
2017-Oct-10 17:00N 50°36' W 127°02'4 5.4
2017-Oct-10 16:14N 50°35' W 126°56'2 7.6
2017-Oct-10 15:59N 50°35' W 126°59'4 6.4
2017-Oct-10 15:21N 50°36' W 127°05'3 8.9
2017-Oct-10 15:00N 50°38' W 127°01'2 2.1
2017-Oct-10 14:00N 50°36' W 127°01'3 0.4
2017-Oct-10 05:36N 50°35' W 126°56'1 7.8
2017-Oct-10 05:30N 50°35' W 126°57'4 5.9
2017-Oct-10 04:53N 50°38' W 127°01'4 2.4
2017-Oct-10 03:13N 50°35' W 126°56'310.1
2017-Oct-10 02:54N 50°35' W 127°01'2 3.7
2017-Oct-10 02:24N 50°36' W 127°04'2 6.2
2017-Oct-10 02:00N 50°38' W 127°01'3 6.1
2017-Oct-10 01:28N 50°36' W 127°05'511.0
2017-Oct-10 01:00N 50°35' W 126°57'2 2.9
2017-Oct-10 00:28N 50°35' W 126°59'4 6.6
2017-Oct-09 23:56N 50°36' W 127°05'3 6.0
2017-Oct-09 23:24N 50°38' W 127°01'2 3.4
2017-Oct-09 22:43N 50°36' W 127°03'211.6
2017-Oct-09 22:30N 50°36' W 126°60'2 3.9
2017-Oct-09 21:53N 50°35' W 126°56'411.1
2017-Oct-09 21:30N 50°36' W 127°03'0 0.7
2017-Oct-09 21:00N 50°36' W 127°03'2 3.4
2017-Oct-09 20:30N 50°38' W 127°02'3 5.6
2017-Oct-09 19:59N 50°36' W 127°05'611.9
2017-Oct-09 19:30N 50°35' W 126°56'2 3.3
2017-Oct-09 19:00N 50°35' W 126°59'4 5.5
2017-Oct-09 18:19N 50°36' W 127°05'3 6.5
2017-Oct-09 17:52N 50°38' W 127°01'3 7.0
2017-Oct-09 17:26N 50°36' W 127°05'1 3.3
2017-Oct-09 16:59N 50°36' W 127°03'4 5.6
2017-Oct-09 16:13N 50°35' W 126°56'3 9.3
2017-Oct-09 15:57N 50°36' W 126°60'3 4.9
2017-Oct-09 15:17N 50°36' W 127°05'310.1
2017-Oct-09 14:59N 50°38' W 127°01'3 5.8
2017-Oct-09 14:30N 50°36' W 127°05'3 5.3
2017-Oct-09 14:00N 50°36' W 127°00'3 0.3
2017-Oct-09 05:54N 50°35' W 126°56'4 9.4
2017-Oct-09 05:30N 50°37' W 127°02'2 1.9
2017-Oct-09 04:38N 50°36' W 127°04'111.1
2017-Oct-09 04:30N 50°37' W 127°02'2 4.7
2017-Oct-09 04:00N 50°36' W 126°59'1 1.2
2017-Oct-09 03:29N 50°35' W 126°58'4 4.8
2017-Oct-09 02:34N 50°36' W 127°05'2 7.0
2017-Oct-09 02:19N 50°36' W 127°02'2 3.8
2017-Oct-09 01:55N 50°38' W 127°01'3 5.2
2017-Oct-09 01:24N 50°36' W 127°04'512.0
2017-Oct-09 01:01N 50°35' W 126°57'4 3.1
2017-Oct-08 23:49N 50°36' W 127°03'2 5.4
2017-Oct-08 23:26N 50°38' W 127°01'3 4.3
2017-Oct-08 22:46N 50°36' W 127°05'311.5
2017-Oct-08 22:30N 50°35' W 126°60'2 3.5
2017-Oct-08 21:49N 50°35' W 126°56'612.0
2017-Oct-08 21:20N 50°36' W 127°05'1 2.7
2017-Oct-08 20:59N 50°36' W 127°04'2 4.4
2017-Oct-08 20:28N 50°38' W 127°01'3 5.0
2017-Oct-08 19:54N 50°36' W 127°05'512.4
2017-Oct-08 19:30N 50°35' W 126°57'2 3.5
2017-Oct-08 18:56N 50°35' W 127°00'3 5.8
2017-Oct-08 18:24N 50°36' W 127°05'3 5.5
2017-Oct-08 17:51N 50°38' W 127°01'2 2.8
2017-Oct-08 17:10N 50°36' W 127°02'313.8
2017-Oct-08 16:56N 50°35' W 126°57'1 1.9
2017-Oct-08 16:29N 50°35' W 126°56'2 4.2
2017-Oct-08 16:00N 50°35' W 126°59'4 2.9
2017-Oct-08 14:42N 50°36' W 127°05'210.5
2017-Oct-08 14:30N 50°37' W 127°02'1 2.4
2017-Oct-08 13:59N 50°36' W 127°00'3 0.4
2017-Oct-08 05:38N 50°35' W 126°56'1 7.6
2017-Oct-08 05:28N 50°35' W 126°58'3 5.1
2017-Oct-08 04:52N 50°38' W 127°01'2 3.2
2017-Oct-08 04:13N 50°36' W 127°03'2 9.3
2017-Oct-08 04:00N 50°38' W 127°01'4 7.8
2017-Oct-08 03:29N 50°35' W 126°56'3 5.1
2017-Oct-08 02:59N 50°35' W 126°60'3 6.7
2017-Oct-08 02:30N 50°36' W 127°05'3 5.6
2017-Oct-08 01:57N 50°38' W 127°01'2 4.3
2017-Oct-08 01:22N 50°36' W 127°04'512.2
2017-Oct-08 00:59N 50°35' W 126°57'1 2.4
2017-Oct-08 00:30N 50°35' W 126°59'4 7.3
2017-Oct-07 23:56N 50°36' W 127°05'3 5.9
2017-Oct-07 23:24N 50°38' W 127°01'3 4.6
2017-Oct-07 22:47N 50°36' W 127°05'411.4
2017-Oct-07 22:26N 50°35' W 126°58'2 2.7
2017-Oct-07 21:51N 50°35' W 126°56'610.6
2017-Oct-07 21:18N 50°36' W 127°05'2 4.5
2017-Oct-07 20:57N 50°36' W 127°03'2 4.0
2017-Oct-07 20:30N 50°38' W 127°01'3 5.7
2017-Oct-07 19:57N 50°36' W 127°05'511.6
2017-Oct-07 19:29N 50°35' W 126°57'1 2.6
2017-Oct-07 18:58N 50°35' W 126°59'3 3.1
2017-Oct-07 18:08N 50°37' W 127°02'1 2.7
2017-Oct-07 17:44N 50°38' W 127°01'3 4.3
2017-Oct-07 17:05N 50°36' W 127°05'111.8
2017-Oct-07 16:59N 50°36' W 127°03'4 6.4
2017-Oct-07 16:19N 50°35' W 126°56'3 8.4
2017-Oct-07 16:00N 50°36' W 127°00'2 1.9
2017-Oct-07 15:07N 50°36' W 127°03'111.1
2017-Oct-07 14:59N 50°37' W 127°02'3 4.8
2017-Oct-07 14:27N 50°36' W 127°05'2 4.7
2017-Oct-07 13:59N 50°36' W 127°01'3 0.4
2017-Oct-07 05:55N 50°35' W 126°56'4 9.3
2017-Oct-07 05:30N 50°37' W 127°01'3 3.6
2017-Oct-07 04:41N 50°36' W 127°05'311.1
2017-Oct-07 04:27N 50°37' W 127°02'2 5.1
2017-Oct-07 04:00N 50°36' W 126°59'1 2.9
2017-Oct-07 03:30N 50°35' W 126°57'4 5.3
2017-Oct-07 02:40N 50°36' W 127°04'211.3
2017-Oct-07 02:30N 50°37' W 127°01'3 4.7
2017-Oct-07 01:53N 50°36' W 127°05'5 8.4
2017-Oct-07 01:17N 50°35' W 126°57'1 2.0
2017-Oct-07 00:56N 50°35' W 126°56'610.5
2017-Oct-07 00:23N 50°36' W 127°05'2 4.4
2017-Oct-07 00:00N 50°36' W 127°03'0 0.1
2017-Oct-06 23:29N 50°36' W 127°03'1 2.3
2017-Oct-06 23:00N 50°36' W 127°04'  

Dump ship's entire track history